Terminal Aerodrome Forecast
Issued by NWS Sterling, VA

Current Version | Previous Version | Text Only | Print | Product List | Glossary Off
Versions: 1 2 3 4 5 6 7 8 9 10 11 12 13 14 15

000
FTUS41 KLWX 221500 AAC
TAFMRB
TAF AMD
KMRB 221509Z 2215/2312 16005KT P6SM BKN020 OVC035
     FM221600 16007KT P6SM BKN035
     FM221800 16006KT P6SM SCT050
     FM230800 00000KT P6SM BKN050
     FM230900 00000KT P6SM BKN030=

USA.gov is the U.S. government's official web portal to all federal, state and local government web resources and services.